sensor_id;sensor_type;location;lat;lon;timestamp;P1;durP1;ratioP1;P2;durP2;ratioP2
74229;SDS011;62589;12.568;99.958;2023-12-29T00:01:20;15.20;;;11.18;;
74229;SDS011;62589;12.568;99.958;2023-12-29T00:03:46;20.15;;;11.65;;
74229;SDS011;62589;12.568;99.958;2023-12-29T00:06:13;22.58;;;13.35;;
74229;SDS011;62589;12.568;99.958;2023-12-29T00:08:39;21.38;;;13.25;;
74229;SDS011;62589;12.568;99.958;2023-12-29T00:11:06;22.48;;;12.88;;
74229;SDS011;62589;12.568;99.958;2023-12-29T00:13:32;20.70;;;12.55;;
74229;SDS011;62589;12.568;99.958;2023-12-29T00:15:58;22.77;;;13.38;;
74229;SDS011;62589;12.568;99.958;2023-12-29T00:18:25;22.25;;;13.48;;
74229;SDS011;62589;12.568;99.958;2023-12-29T00:20:51;16.60;;;11.98;;
74229;SDS011;62589;12.568;99.958;2023-12-29T00:23:18;16.80;;;11.15;;
74229;SDS011;62589;12.568;99.958;2023-12-29T00:25:44;18.67;;;12.77;;
74229;SDS011;62589;12.568;99.958;2023-12-29T00:28:11;20.17;;;12.85;;
74229;SDS011;62589;12.568;99.958;2023-12-29T00:30:40;20.25;;;13.13;;
74229;SDS011;62589;12.568;99.958;2023-12-29T00:33:07;17.95;;;13.30;;
74229;SDS011;62589;12.568;99.958;2023-12-29T00:35:36;19.23;;;13.85;;
74229;SDS011;62589;12.568;99.958;2023-12-29T00:38:04;20.42;;;13.70;;
74229;SDS011;62589;12.568;99.958;2023-12-29T00:40:34;19.27;;;13.35;;
74229;SDS011;62589;12.568;99.958;2023-12-29T00:43:00;22.50;;;13.13;;
74229;SDS011;62589;12.568;99.958;2023-12-29T00:45:27;19.40;;;13.13;;
74229;SDS011;62589;12.568;99.958;2023-12-29T00:47:58;21.50;;;13.70;;
74229;SDS011;62589;12.568;99.958;2023-12-29T00:50:25;17.63;;;12.93;;
74229;SDS011;62589;12.568;99.958;2023-12-29T00:52:52;16.92;;;13.30;;
74229;SDS011;62589;12.568;99.958;2023-12-29T00:55:19;21.20;;;14.20;;
74229;SDS011;62589;12.568;99.958;2023-12-29T00:57:45;19.80;;;13.07;;
74229;SDS011;62589;12.568;99.958;2023-12-29T01:00:12;18.23;;;12.95;;
74229;SDS011;62589;12.568;99.958;2023-12-29T01:02:39;22.05;;;12.82;;
74229;SDS011;62589;12.568;99.958;2023-12-29T01:05:05;18.27;;;13.02;;
74229;SDS011;62589;12.568;99.958;2023-12-29T01:07:32;16.83;;;12.75;;
74229;SDS011;62589;12.568;99.958;2023-12-29T01:09:59;16.70;;;12.07;;
74229;SDS011;62589;12.568;99.958;2023-12-29T01:12:26;15.90;;;12.35;;
74229;SDS011;62589;12.568;99.958;2023-12-29T01:14:52;19.65;;;12.90;;
74229;SDS011;62589;12.568;99.958;2023-12-29T01:17:19;18.63;;;12.57;;
74229;SDS011;62589;12.568;99.958;2023-12-29T01:19:47;17.92;;;12.20;;
74229;SDS011;62589;12.568;99.958;2023-12-29T01:22:14;18.60;;;13.07;;
74229;SDS011;62589;12.568;99.958;2023-12-29T01:24:40;19.50;;;12.18;;
74229;SDS011;62589;12.568;99.958;2023-12-29T01:27:06;18.02;;;12.10;;
74229;SDS011;62589;12.568;99.958;2023-12-29T01:29:33;16.52;;;11.55;;
74229;SDS011;62589;12.568;99.958;2023-12-29T01:31:59;16.08;;;12.50;;
74229;SDS011;62589;12.568;99.958;2023-12-29T01:34:29;17.77;;;11.98;;
74229;SDS011;62589;12.568;99.958;2023-12-29T01:36:59;16.70;;;11.93;;
74229;SDS011;62589;12.568;99.958;2023-12-29T01:39:28;15.48;;;11.80;;
74229;SDS011;62589;12.568;99.958;2023-12-29T01:41:55;14.82;;;10.95;;
74229;SDS011;62589;12.568;99.958;2023-12-29T01:44:22;18.45;;;11.50;;
74229;SDS011;62589;12.568;99.958;2023-12-29T01:46:49;15.50;;;11.38;;
74229;SDS011;62589;12.568;99.958;2023-12-29T01:49:17;18.13;;;12.18;;
74229;SDS011;62589;12.568;99.958;2023-12-29T01:51:55;17.60;;;11.77;;
74229;SDS011;62589;12.568;99.958;2023-12-29T01:54:24;16.58;;;12.13;;
74229;SDS011;62589;12.568;99.958;2023-12-29T01:56:56;16.25;;;10.90;;
74229;SDS011;62589;12.568;99.958;2023-12-29T01:59:25;19.85;;;11.48;;
74229;SDS011;62589;12.568;99.958;2023-12-29T02:01:55;14.77;;;11.20;;
74229;SDS011;62589;12.568;99.958;2023-12-29T02:04:23;17.48;;;12.13;;
74229;SDS011;62589;12.568;99.958;2023-12-29T02:06:51;13.88;;;10.93;;
74229;SDS011;62589;12.568;99.958;2023-12-29T02:09:17;17.85;;;11.77;;
74229;SDS011;62589;12.568;99.958;2023-12-29T02:11:44;15.77;;;11.35;;
74229;SDS011;62589;12.568;99.958;2023-12-29T02:14:14;16.17;;;11.82;;
74229;SDS011;62589;12.568;99.958;2023-12-29T02:17:01;14.77;;;11.00;;
74229;SDS011;62589;12.568;99.958;2023-12-29T02:19:42;16.90;;;11.52;;
74229;SDS011;62589;12.568;99.958;2023-12-29T02:22:10;19.83;;;12.05;;
74229;SDS011;62589;12.568;99.958;2023-12-29T02:24:38;18.65;;;11.27;;
74229;SDS011;62589;12.568;99.958;2023-12-29T02:30:09;20.85;;;12.02;;
74229;SDS011;62589;12.568;99.958;2023-12-29T02:32:48;16.00;;;12.07;;
74229;SDS011;62589;12.568;99.958;2023-12-29T02:35:23;16.30;;;11.60;;
74229;SDS011;62589;12.568;99.958;2023-12-29T02:37:52;18.40;;;11.35;;
74229;SDS011;62589;12.568;99.958;2023-12-29T02:40:22;20.48;;;12.13;;
74229;SDS011;62589;12.568;99.958;2023-12-29T02:42:50;18.48;;;11.43;;
74229;SDS011;62589;12.568;99.958;2023-12-29T02:45:17;18.33;;;11.35;;
74229;SDS011;62589;12.568;99.958;2023-12-29T02:47:44;14.88;;;10.73;;
74229;SDS011;62589;12.568;99.958;2023-12-29T02:50:11;19.83;;;11.43;;
74229;SDS011;62589;12.568;99.958;2023-12-29T02:52:38;15.35;;;10.65;;
74229;SDS011;62589;12.568;99.958;2023-12-29T02:55:04;16.55;;;11.20;;
74229;SDS011;62589;12.568;99.958;2023-12-29T02:57:31;16.88;;;11.20;;
74229;SDS011;62589;12.568;99.958;2023-12-29T02:59:57;14.75;;;11.35;;
74229;SDS011;62589;12.568;99.958;2023-12-29T03:02:24;13.70;;;9.80;;
74229;SDS011;62589;12.568;99.958;2023-12-29T03:04:50;16.85;;;11.32;;
74229;SDS011;62589;12.568;99.958;2023-12-29T03:07:17;17.50;;;10.80;;
74229;SDS011;62589;12.568;99.958;2023-12-29T03:09:44;14.27;;;10.23;;
74229;SDS011;62589;12.568;99.958;2023-12-29T03:12:10;15.18;;;10.77;;
74229;SDS011;62589;12.568;99.958;2023-12-29T03:14:36;17.55;;;12.23;;
74229;SDS011;62589;12.568;99.958;2023-12-29T03:17:03;14.63;;;10.23;;
74229;SDS011;62589;12.568;99.958;2023-12-29T03:19:29;15.32;;;10.45;;
74229;SDS011;62589;12.568;99.958;2023-12-29T03:21:56;19.25;;;11.23;;
74229;SDS011;62589;12.568;99.958;2023-12-29T03:24:22;14.15;;;10.82;;
74229;SDS011;62589;12.568;99.958;2023-12-29T03:26:49;18.23;;;11.32;;
74229;SDS011;62589;12.568;99.958;2023-12-29T03:29:15;16.90;;;11.18;;
74229;SDS011;62589;12.568;99.958;2023-12-29T03:31:42;13.95;;;10.57;;
74229;SDS011;62589;12.568;99.958;2023-12-29T03:50:21;13.73;;;9.75;;
74229;SDS011;62589;12.568;99.958;2023-12-29T03:52:49;14.60;;;9.68;;
74229;SDS011;62589;12.568;99.958;2023-12-29T03:55:15;15.07;;;10.68;;
74229;SDS011;62589;12.568;99.958;2023-12-29T03:57:42;12.70;;;10.10;;
74229;SDS011;62589;12.568;99.958;2023-12-29T04:00:12;12.70;;;9.48;;
74229;SDS011;62589;12.568;99.958;2023-12-29T04:02:39;12.32;;;8.80;;
74229;SDS011;62589;12.568;99.958;2023-12-29T04:05:08;11.75;;;9.60;;
74229;SDS011;62589;12.568;99.958;2023-12-29T04:07:36;13.02;;;9.10;;
74229;SDS011;62589;12.568;99.958;2023-12-29T04:10:05;13.40;;;8.73;;
74229;SDS011;62589;12.568;99.958;2023-12-29T04:12:32;11.82;;;8.57;;
74229;SDS011;62589;12.568;99.958;2023-12-29T04:14:59;12.50;;;9.75;;
74229;SDS011;62589;12.568;99.958;2023-12-29T04:17:26;16.02;;;9.43;;
74229;SDS011;62589;12.568;99.958;2023-12-29T04:19:52;13.95;;;9.18;;
74229;SDS011;62589;12.568;99.958;2023-12-29T04:22:18;14.15;;;9.52;;
74229;SDS011;62589;12.568;99.958;2023-12-29T04:24:45;15.88;;;9.48;;
74229;SDS011;62589;12.568;99.958;2023-12-29T04:27:12;13.93;;;10.15;;
74229;SDS011;62589;12.568;99.958;2023-12-29T04:29:39;12.95;;;9.45;;
74229;SDS011;62589;12.568;99.958;2023-12-29T04:32:07;13.52;;;10.27;;
74229;SDS011;62589;12.568;99.958;2023-12-29T04:34:34;15.45;;;10.43;;
74229;SDS011;62589;12.568;99.958;2023-12-29T04:37:00;14.05;;;9.82;;
74229;SDS011;62589;12.568;99.958;2023-12-29T04:39:27;13.40;;;9.73;;
74229;SDS011;62589;12.568;99.958;2023-12-29T04:41:53;19.35;;;9.75;;
74229;SDS011;62589;12.568;99.958;2023-12-29T04:44:19;16.65;;;10.00;;
74229;SDS011;62589;12.568;99.958;2023-12-29T04:46:46;14.15;;;9.88;;
74229;SDS011;62589;12.568;99.958;2023-12-29T04:49:13;16.08;;;9.95;;
74229;SDS011;62589;12.568;99.958;2023-12-29T04:51:39;15.40;;;10.20;;
74229;SDS011;62589;12.568;99.958;2023-12-29T04:54:06;13.93;;;10.00;;
74229;SDS011;62589;12.568;99.958;2023-12-29T04:56:32;15.15;;;11.02;;
74229;SDS011;62589;12.568;99.958;2023-12-29T04:58:58;14.93;;;10.38;;
74229;SDS011;62589;12.568;99.958;2023-12-29T05:01:25;14.02;;;10.20;;
74229;SDS011;62589;12.568;99.958;2023-12-29T05:03:51;11.48;;;8.80;;
74229;SDS011;62589;12.568;99.958;2023-12-29T05:06:18;14.32;;;10.38;;
74229;SDS011;62589;12.568;99.958;2023-12-29T05:08:44;14.00;;;9.85;;
74229;SDS011;62589;12.568;99.958;2023-12-29T05:11:11;15.30;;;11.10;;
74229;SDS011;62589;12.568;99.958;2023-12-29T05:13:37;13.60;;;10.32;;
74229;SDS011;62589;12.568;99.958;2023-12-29T05:16:04;13.95;;;9.98;;
74229;SDS011;62589;12.568;99.958;2023-12-29T05:18:31;14.65;;;9.82;;
74229;SDS011;62589;12.568;99.958;2023-12-29T05:20:57;16.73;;;10.90;;
74229;SDS011;62589;12.568;99.958;2023-12-29T05:23:24;14.82;;;9.70;;
74229;SDS011;62589;12.568;99.958;2023-12-29T05:25:51;13.38;;;10.63;;
74229;SDS011;62589;12.568;99.958;2023-12-29T05:28:17;15.95;;;11.85;;
74229;SDS011;62589;12.568;99.958;2023-12-29T05:30:44;14.07;;;11.00;;
74229;SDS011;62589;12.568;99.958;2023-12-29T05:33:10;17.45;;;12.32;;
74229;SDS011;62589;12.568;99.958;2023-12-29T05:35:36;18.27;;;11.40;;
74229;SDS011;62589;12.568;99.958;2023-12-29T05:38:03;13.57;;;10.98;;
74229;SDS011;62589;12.568;99.958;2023-12-29T05:40:29;14.80;;;11.02;;
74229;SDS011;62589;12.568;99.958;2023-12-29T05:42:56;14.60;;;11.00;;
74229;SDS011;62589;12.568;99.958;2023-12-29T05:45:22;14.73;;;10.77;;
74229;SDS011;62589;12.568;99.958;2023-12-29T05:47:49;14.07;;;10.30;;
74229;SDS011;62589;12.568;99.958;2023-12-29T05:50:15;15.13;;;10.68;;
74229;SDS011;62589;12.568;99.958;2023-12-29T05:52:42;14.77;;;10.80;;
74229;SDS011;62589;12.568;99.958;2023-12-29T05:55:08;13.00;;;9.93;;
74229;SDS011;62589;12.568;99.958;2023-12-29T05:57:34;15.73;;;10.98;;
74229;SDS011;62589;12.568;99.958;2023-12-29T06:00:01;14.35;;;10.60;;
74229;SDS011;62589;12.568;99.958;2023-12-29T06:02:28;14.00;;;10.65;;
74229;SDS011;62589;12.568;99.958;2023-12-29T06:04:54;12.60;;;10.27;;
74229;SDS011;62589;12.568;99.958;2023-12-29T06:07:20;15.20;;;10.68;;
74229;SDS011;62589;12.568;99.958;2023-12-29T06:09:47;15.38;;;10.07;;
74229;SDS011;62589;12.568;99.958;2023-12-29T06:12:13;16.02;;;10.40;;
74229;SDS011;62589;12.568;99.958;2023-12-29T06:14:40;12.55;;;10.15;;
74229;SDS011;62589;12.568;99.958;2023-12-29T06:17:06;13.10;;;9.32;;
74229;SDS011;62589;12.568;99.958;2023-12-29T06:19:33;10.95;;;9.13;;
74229;SDS011;62589;12.568;99.958;2023-12-29T06:21:59;12.48;;;8.70;;
74229;SDS011;62589;12.568;99.958;2023-12-29T06:24:26;14.80;;;8.13;;
74229;SDS011;62589;12.568;99.958;2023-12-29T06:26:52;10.40;;;7.90;;
74229;SDS011;62589;12.568;99.958;2023-12-29T06:29:19;13.13;;;8.40;;
74229;SDS011;62589;12.568;99.958;2023-12-29T06:31:45;10.30;;;7.97;;
74229;SDS011;62589;12.568;99.958;2023-12-29T06:34:12;12.80;;;7.50;;
74229;SDS011;62589;12.568;99.958;2023-12-29T06:36:38;13.32;;;9.60;;
74229;SDS011;62589;12.568;99.958;2023-12-29T06:39:05;12.10;;;9.27;;
74229;SDS011;62589;12.568;99.958;2023-12-29T06:41:31;11.10;;;8.60;;
74229;SDS011;62589;12.568;99.958;2023-12-29T06:43:58;11.55;;;8.68;;
74229;SDS011;62589;12.568;99.958;2023-12-29T06:46:24;10.40;;;7.78;;
74229;SDS011;62589;12.568;99.958;2023-12-29T06:48:51;9.00;;;7.28;;
74229;SDS011;62589;12.568;99.958;2023-12-29T06:51:17;9.13;;;6.47;;
74229;SDS011;62589;12.568;99.958;2023-12-29T06:53:45;8.15;;;6.90;;
74229;SDS011;62589;12.568;99.958;2023-12-29T06:56:15;8.73;;;6.05;;
74229;SDS011;62589;12.568;99.958;2023-12-29T06:58:43;7.43;;;5.97;;
74229;SDS011;62589;12.568;99.958;2023-12-29T07:01:10;7.57;;;5.05;;
74229;SDS011;62589;12.568;99.958;2023-12-29T07:03:36;6.72;;;5.32;;
74229;SDS011;62589;12.568;99.958;2023-12-29T07:06:03;7.60;;;5.65;;
74229;SDS011;62589;12.568;99.958;2023-12-29T07:08:30;7.78;;;5.50;;
74229;SDS011;62589;12.568;99.958;2023-12-29T07:10:56;7.15;;;5.80;;
74229;SDS011;62589;12.568;99.958;2023-12-29T07:13:23;8.48;;;5.68;;
74229;SDS011;62589;12.568;99.958;2023-12-29T07:15:50;8.50;;;6.05;;
74229;SDS011;62589;12.568;99.958;2023-12-29T07:18:16;7.75;;;6.50;;
74229;SDS011;62589;12.568;99.958;2023-12-29T07:20:43;9.32;;;7.20;;
74229;SDS011;62589;12.568;99.958;2023-12-29T07:23:09;9.23;;;7.13;;
74229;SDS011;62589;12.568;99.958;2023-12-29T07:25:36;9.45;;;7.00;;
74229;SDS011;62589;12.568;99.958;2023-12-29T07:28:02;10.63;;;7.72;;
74229;SDS011;62589;12.568;99.958;2023-12-29T07:30:29;10.63;;;7.15;;
74229;SDS011;62589;12.568;99.958;2023-12-29T07:32:55;10.90;;;7.20;;
74229;SDS011;62589;12.568;99.958;2023-12-29T07:35:22;9.05;;;7.22;;
74229;SDS011;62589;12.568;99.958;2023-12-29T07:37:48;10.52;;;7.50;;
74229;SDS011;62589;12.568;99.958;2023-12-29T07:40:15;9.70;;;7.10;;
74229;SDS011;62589;12.568;99.958;2023-12-29T07:42:41;8.23;;;6.25;;
74229;SDS011;62589;12.568;99.958;2023-12-29T07:45:10;8.35;;;6.53;;
74229;SDS011;62589;12.568;99.958;2023-12-29T07:47:36;7.13;;;5.43;;
74229;SDS011;62589;12.568;99.958;2023-12-29T07:50:03;7.05;;;5.57;;
74229;SDS011;62589;12.568;99.958;2023-12-29T07:52:31;6.72;;;5.60;;
74229;SDS011;62589;12.568;99.958;2023-12-29T07:54:57;9.20;;;6.25;;
74229;SDS011;62589;12.568;99.958;2023-12-29T07:57:24;9.30;;;6.07;;
74229;SDS011;62589;12.568;99.958;2023-12-29T07:59:50;6.93;;;6.13;;
74229;SDS011;62589;12.568;99.958;2023-12-29T08:02:16;6.90;;;5.90;;
74229;SDS011;62589;12.568;99.958;2023-12-29T08:04:43;6.63;;;5.68;;
74229;SDS011;62589;12.568;99.958;2023-12-29T08:07:12;6.70;;;5.85;;
74229;SDS011;62589;12.568;99.958;2023-12-29T08:09:38;7.70;;;5.55;;
74229;SDS011;62589;12.568;99.958;2023-12-29T08:12:05;5.78;;;5.07;;
74229;SDS011;62589;12.568;99.958;2023-12-29T08:14:32;8.20;;;5.28;;
74229;SDS011;62589;12.568;99.958;2023-12-29T08:16:58;7.43;;;5.18;;
74229;SDS011;62589;12.568;99.958;2023-12-29T08:19:24;6.82;;;5.18;;
74229;SDS011;62589;12.568;99.958;2023-12-29T08:21:51;5.72;;;4.68;;
74229;SDS011;62589;12.568;99.958;2023-12-29T08:24:17;9.02;;;4.65;;
74229;SDS011;62589;12.568;99.958;2023-12-29T08:26:46;6.97;;;4.80;;
74229;SDS011;62589;12.568;99.958;2023-12-29T08:29:13;5.40;;;4.30;;
74229;SDS011;62589;12.568;99.958;2023-12-29T08:31:41;8.50;;;4.50;;
74229;SDS011;62589;12.568;99.958;2023-12-29T08:34:08;6.10;;;4.57;;
74229;SDS011;62589;12.568;99.958;2023-12-29T08:36:35;5.10;;;4.35;;
74229;SDS011;62589;12.568;99.958;2023-12-29T08:39:01;5.28;;;4.45;;
74229;SDS011;62589;12.568;99.958;2023-12-29T08:41:28;7.28;;;4.50;;
74229;SDS011;62589;12.568;99.958;2023-12-29T08:43:54;7.65;;;4.40;;
74229;SDS011;62589;12.568;99.958;2023-12-29T08:46:21;5.80;;;4.43;;
74229;SDS011;62589;12.568;99.958;2023-12-29T08:48:48;7.93;;;4.57;;
74229;SDS011;62589;12.568;99.958;2023-12-29T08:51:14;5.20;;;4.43;;
74229;SDS011;62589;12.568;99.958;2023-12-29T08:53:41;5.20;;;4.55;;
74229;SDS011;62589;12.568;99.958;2023-12-29T08:56:07;6.60;;;4.90;;
74229;SDS011;62589;12.568;99.958;2023-12-29T08:58:34;8.77;;;4.93;;
74229;SDS011;62589;12.568;99.958;2023-12-29T09:01:00;5.55;;;4.60;;
74229;SDS011;62589;12.568;99.958;2023-12-29T09:03:26;5.72;;;5.10;;
74229;SDS011;62589;12.568;99.958;2023-12-29T09:05:53;5.85;;;4.45;;
74229;SDS011;62589;12.568;99.958;2023-12-29T09:08:19;5.43;;;4.32;;
74229;SDS011;62589;12.568;99.958;2023-12-29T09:10:46;6.05;;;4.20;;
74229;SDS011;62589;12.568;99.958;2023-12-29T09:13:12;5.25;;;4.75;;
74229;SDS011;62589;12.568;99.958;2023-12-29T09:15:39;5.93;;;4.85;;
74229;SDS011;62589;12.568;99.958;2023-12-29T09:18:05;7.53;;;4.78;;
74229;SDS011;62589;12.568;99.958;2023-12-29T09:20:32;5.63;;;4.70;;
74229;SDS011;62589;12.568;99.958;2023-12-29T09:22:58;7.47;;;4.72;;
74229;SDS011;62589;12.568;99.958;2023-12-29T09:25:25;8.95;;;4.82;;
74229;SDS011;62589;12.568;99.958;2023-12-29T09:27:51;4.82;;;4.32;;
74229;SDS011;62589;12.568;99.958;2023-12-29T09:30:18;5.07;;;4.57;;
74229;SDS011;62589;12.568;99.958;2023-12-29T09:32:45;5.50;;;4.20;;
74229;SDS011;62589;12.568;99.958;2023-12-29T09:35:11;5.05;;;4.32;;
74229;SDS011;62589;12.568;99.958;2023-12-29T09:37:37;6.93;;;5.03;;
74229;SDS011;62589;12.568;99.958;2023-12-29T09:40:04;5.25;;;4.13;;
74229;SDS011;62589;12.568;99.958;2023-12-29T09:42:31;6.32;;;4.70;;
74229;SDS011;62589;12.568;99.958;2023-12-29T09:44:59;7.50;;;5.10;;
74229;SDS011;62589;12.568;99.958;2023-12-29T09:47:33;5.38;;;4.25;;
74229;SDS011;62589;12.568;99.958;2023-12-29T09:50:02;5.60;;;5.00;;
74229;SDS011;62589;12.568;99.958;2023-12-29T09:52:32;6.00;;;4.82;;
74229;SDS011;62589;12.568;99.958;2023-12-29T09:55:00;5.78;;;5.05;;
74229;SDS011;62589;12.568;99.958;2023-12-29T09:57:27;7.45;;;5.55;;
74229;SDS011;62589;12.568;99.958;2023-12-29T09:59:54;6.47;;;5.70;;
74229;SDS011;62589;12.568;99.958;2023-12-29T10:02:21;9.85;;;6.32;;
74229;SDS011;62589;12.568;99.958;2023-12-29T10:04:48;8.25;;;6.50;;
74229;SDS011;62589;12.568;99.958;2023-12-29T10:07:18;10.38;;;6.00;;
74229;SDS011;62589;12.568;99.958;2023-12-29T10:09:58;9.60;;;6.30;;
74229;SDS011;62589;12.568;99.958;2023-12-29T10:12:27;8.63;;;6.95;;
74229;SDS011;62589;12.568;99.958;2023-12-29T10:17:48;7.45;;;5.90;;
74229;SDS011;62589;12.568;99.958;2023-12-29T10:23:17;8.50;;;6.60;;
74229;SDS011;62589;12.568;99.958;2023-12-29T10:25:51;11.23;;;6.55;;
74229;SDS011;62589;12.568;99.958;2023-12-29T10:28:18;7.30;;;6.22;;
74229;SDS011;62589;12.568;99.958;2023-12-29T10:30:47;7.10;;;6.00;;
74229;SDS011;62589;12.568;99.958;2023-12-29T10:33:22;9.27;;;6.50;;
74229;SDS011;62589;12.568;99.958;2023-12-29T10:36:00;10.73;;;6.60;;
74229;SDS011;62589;12.568;99.958;2023-12-29T10:38:28;7.10;;;5.90;;
74229;SDS011;62589;12.568;99.958;2023-12-29T10:43:42;9.07;;;6.20;;
74229;SDS011;62589;12.568;99.958;2023-12-29T10:46:10;9.45;;;6.93;;
74229;SDS011;62589;12.568;99.958;2023-12-29T10:48:37;8.93;;;6.90;;
74229;SDS011;62589;12.568;99.958;2023-12-29T10:51:05;8.55;;;6.50;;
74229;SDS011;62589;12.568;99.958;2023-12-29T10:53:32;9.48;;;6.75;;
74229;SDS011;62589;12.568;99.958;2023-12-29T10:56:00;13.23;;;7.07;;
74229;SDS011;62589;12.568;99.958;2023-12-29T10:58:26;10.65;;;7.85;;
74229;SDS011;62589;12.568;99.958;2023-12-29T11:00:55;9.50;;;7.65;;
74229;SDS011;62589;12.568;99.958;2023-12-29T11:03:22;9.60;;;7.35;;
74229;SDS011;62589;12.568;99.958;2023-12-29T11:05:50;8.43;;;7.10;;
74229;SDS011;62589;12.568;99.958;2023-12-29T11:08:27;9.07;;;7.88;;
74229;SDS011;62589;12.568;99.958;2023-12-29T11:10:54;8.45;;;6.93;;
74229;SDS011;62589;12.568;99.958;2023-12-29T11:13:21;7.65;;;6.43;;
74229;SDS011;62589;12.568;99.958;2023-12-29T11:15:51;9.43;;;7.30;;
74229;SDS011;62589;12.568;99.958;2023-12-29T11:18:19;8.63;;;7.10;;
74229;SDS011;62589;12.568;99.958;2023-12-29T11:20:46;8.25;;;7.15;;
74229;SDS011;62589;12.568;99.958;2023-12-29T11:23:12;10.35;;;6.93;;
74229;SDS011;62589;12.568;99.958;2023-12-29T11:25:39;8.60;;;6.82;;
74229;SDS011;62589;12.568;99.958;2023-12-29T11:28:06;8.95;;;7.30;;
74229;SDS011;62589;12.568;99.958;2023-12-29T11:30:39;11.02;;;8.25;;
74229;SDS011;62589;12.568;99.958;2023-12-29T11:33:07;9.07;;;7.38;;
74229;SDS011;62589;12.568;99.958;2023-12-29T11:44:00;10.35;;;8.15;;
74229;SDS011;62589;12.568;99.958;2023-12-29T11:46:37;14.60;;;8.70;;
74229;SDS011;62589;12.568;99.958;2023-12-29T11:49:04;12.98;;;8.93;;
74229;SDS011;62589;12.568;99.958;2023-12-29T11:51:40;13.07;;;9.30;;
74229;SDS011;62589;12.568;99.958;2023-12-29T11:56:54;11.73;;;8.25;;
74229;SDS011;62589;12.568;99.958;2023-12-29T12:04:34;12.40;;;8.93;;
74229;SDS011;62589;12.568;99.958;2023-12-29T12:07:05;12.70;;;9.52;;
74229;SDS011;62589;12.568;99.958;2023-12-29T12:09:33;13.32;;;9.13;;
74229;SDS011;62589;12.568;99.958;2023-12-29T12:12:01;11.52;;;9.30;;
74229;SDS011;62589;12.568;99.958;2023-12-29T12:17:12;10.93;;;8.93;;
74229;SDS011;62589;12.568;99.958;2023-12-29T12:19:53;15.55;;;10.30;;
74229;SDS011;62589;12.568;99.958;2023-12-29T12:22:30;13.18;;;9.75;;
74229;SDS011;62589;12.568;99.958;2023-12-29T12:24:58;15.68;;;10.00;;
74229;SDS011;62589;12.568;99.958;2023-12-29T12:27:26;14.75;;;10.02;;
74229;SDS011;62589;12.568;99.958;2023-12-29T12:29:56;13.23;;;8.85;;
74229;SDS011;62589;12.568;99.958;2023-12-29T12:32:25;11.05;;;9.20;;
74229;SDS011;62589;12.568;99.958;2023-12-29T12:34:53;11.95;;;9.38;;
74229;SDS011;62589;12.568;99.958;2023-12-29T12:37:23;12.70;;;9.20;;
74229;SDS011;62589;12.568;99.958;2023-12-29T12:39:51;14.93;;;10.02;;
74229;SDS011;62589;12.568;99.958;2023-12-29T12:42:21;12.60;;;8.57;;
74229;SDS011;62589;12.568;99.958;2023-12-29T12:45:10;12.23;;;9.18;;
74229;SDS011;62589;12.568;99.958;2023-12-29T12:47:45;13.55;;;8.68;;
74229;SDS011;62589;12.568;99.958;2023-12-29T12:50:17;14.70;;;9.57;;
74229;SDS011;62589;12.568;99.958;2023-12-29T12:52:43;15.15;;;9.73;;
74229;SDS011;62589;12.568;99.958;2023-12-29T12:55:10;13.30;;;9.07;;
74229;SDS011;62589;12.568;99.958;2023-12-29T12:57:39;11.25;;;8.20;;
74229;SDS011;62589;12.568;99.958;2023-12-29T13:00:07;9.93;;;8.00;;
74229;SDS011;62589;12.568;99.958;2023-12-29T13:02:34;12.25;;;8.10;;
74229;SDS011;62589;12.568;99.958;2023-12-29T13:05:02;13.18;;;8.88;;
74229;SDS011;62589;12.568;99.958;2023-12-29T13:07:33;15.35;;;8.85;;
74229;SDS011;62589;12.568;99.958;2023-12-29T13:10:01;12.93;;;8.25;;
74229;SDS011;62589;12.568;99.958;2023-12-29T13:12:29;14.43;;;8.63;;
74229;SDS011;62589;12.568;99.958;2023-12-29T13:15:07;11.77;;;8.43;;
74229;SDS011;62589;12.568;99.958;2023-12-29T13:17:35;11.10;;;8.05;;
74229;SDS011;62589;12.568;99.958;2023-12-29T13:20:01;11.63;;;8.00;;
74229;SDS011;62589;12.568;99.958;2023-12-29T13:22:29;10.27;;;7.03;;
74229;SDS011;62589;12.568;99.958;2023-12-29T13:24:57;10.43;;;7.68;;
74229;SDS011;62589;12.568;99.958;2023-12-29T13:27:24;10.05;;;7.05;;
74229;SDS011;62589;12.568;99.958;2023-12-29T13:29:51;11.10;;;7.53;;
74229;SDS011;62589;12.568;99.958;2023-12-29T13:32:21;10.45;;;7.38;;
74229;SDS011;62589;12.568;99.958;2023-12-29T13:35:03;10.82;;;7.15;;
74229;SDS011;62589;12.568;99.958;2023-12-29T13:37:53;11.48;;;7.53;;
74229;SDS011;62589;12.568;99.958;2023-12-29T13:43:03;7.43;;;6.45;;
74229;SDS011;62589;12.568;99.958;2023-12-29T13:45:34;9.13;;;6.45;;
74229;SDS011;62589;12.568;99.958;2023-12-29T13:48:02;8.65;;;6.40;;
74229;SDS011;62589;12.568;99.958;2023-12-29T13:50:29;16.15;;;6.88;;
74229;SDS011;62589;12.568;99.958;2023-12-29T13:52:56;8.60;;;6.38;;
74229;SDS011;62589;12.568;99.958;2023-12-29T13:55:23;9.27;;;5.90;;
74229;SDS011;62589;12.568;99.958;2023-12-29T13:57:50;8.57;;;6.55;;
74229;SDS011;62589;12.568;99.958;2023-12-29T14:00:18;6.32;;;5.63;;
74229;SDS011;62589;12.568;99.958;2023-12-29T14:05:24;6.35;;;5.70;;
74229;SDS011;62589;12.568;99.958;2023-12-29T14:08:00;7.90;;;6.15;;
74229;SDS011;62589;12.568;99.958;2023-12-29T14:13:05;8.85;;;6.32;;
74229;SDS011;62589;12.568;99.958;2023-12-29T14:15:36;8.48;;;5.68;;
74229;SDS011;62589;12.568;99.958;2023-12-29T14:20:38;6.43;;;5.75;;
74229;SDS011;62589;12.568;99.958;2023-12-29T14:23:08;7.47;;;6.13;;
74229;SDS011;62589;12.568;99.958;2023-12-29T14:25:36;7.53;;;5.47;;
74229;SDS011;62589;12.568;99.958;2023-12-29T14:28:03;7.65;;;6.05;;
74229;SDS011;62589;12.568;99.958;2023-12-29T14:30:43;7.13;;;6.10;;
74229;SDS011;62589;12.568;99.958;2023-12-29T14:33:11;10.75;;;6.30;;
74229;SDS011;62589;12.568;99.958;2023-12-29T14:35:38;8.30;;;5.65;;
74229;SDS011;62589;12.568;99.958;2023-12-29T14:38:04;7.32;;;5.63;;
74229;SDS011;62589;12.568;99.958;2023-12-29T14:40:31;8.07;;;5.95;;
74229;SDS011;62589;12.568;99.958;2023-12-29T14:43:00;10.05;;;6.18;;
74229;SDS011;62589;12.568;99.958;2023-12-29T14:45:27;8.93;;;5.60;;
74229;SDS011;62589;12.568;99.958;2023-12-29T14:47:55;6.90;;;5.65;;
74229;SDS011;62589;12.568;99.958;2023-12-29T14:52:54;9.90;;;6.57;;
74229;SDS011;62589;12.568;99.958;2023-12-29T14:55:20;8.45;;;6.60;;
74229;SDS011;62589;12.568;99.958;2023-12-29T14:57:47;9.52;;;6.20;;
74229;SDS011;62589;12.568;99.958;2023-12-29T15:00:14;9.85;;;6.13;;
74229;SDS011;62589;12.568;99.958;2023-12-29T15:02:42;9.40;;;6.18;;
74229;SDS011;62589;12.568;99.958;2023-12-29T15:05:08;7.85;;;6.30;;
74229;SDS011;62589;12.568;99.958;2023-12-29T15:07:35;8.93;;;6.28;;
74229;SDS011;62589;12.568;99.958;2023-12-29T15:10:01;9.57;;;6.47;;
74229;SDS011;62589;12.568;99.958;2023-12-29T15:12:28;15.27;;;6.95;;
74229;SDS011;62589;12.568;99.958;2023-12-29T15:14:54;10.15;;;7.22;;
74229;SDS011;62589;12.568;99.958;2023-12-29T15:17:21;11.90;;;8.07;;
74229;SDS011;62589;12.568;99.958;2023-12-29T15:19:47;12.27;;;9.00;;
74229;SDS011;62589;12.568;99.958;2023-12-29T15:22:14;14.63;;;9.27;;
74229;SDS011;62589;12.568;99.958;2023-12-29T15:24:40;12.25;;;8.30;;